Time;durP1;ratioP1;P1;durP2;ratioP2;P2;SDS_P1;SDS_P2;PMS_P1;PMS_P2;Temp;Humidity;BMP_temperature;BMP_pressure;BME280_temperature;BME280_humidity;BME280_pressure;Samples;Min_cycle;Max_cycle;Signal;HPM_P1;HPM_P2
2022/08/23 00:01:21;;;;;;;5.20;4.00;;;20.90;83.60;;;;;;5075541;28;20502;-55
2022/08/23 00:03:49;;;;;;;4.00;3.70;;;20.60;84.30;;;;;;5075881;28;20424;-56
2022/08/23 00:06:17;;;;;;;3.63;3.27;;;20.60;84.70;;;;;;5075955;28;20448;-55
2022/08/23 00:08:45;;;;;;;5.33;3.87;;;20.50;85.20;;;;;;5075835;28;20431;-56
2022/08/23 00:11:28;;;;;;;3.73;3.33;;;20.50;85.80;;;;;;5075623;28;20475;-55
2022/08/23 00:13:56;;;;;;;3.77;3.47;;;20.50;85.80;;;;;;5075393;28;20899;-55
2022/08/23 00:16:23;;;;;;;4.53;3.50;;;20.40;86.30;;;;;;5075463;28;20497;-55
2022/08/23 00:18:51;;;;;;;6.37;4.13;;;20.30;86.60;;;;;;5075550;28;20613;-55
2022/08/23 00:21:18;;;;;;;5.33;3.77;;;20.30;87.30;;;;;;5075151;28;20563;-55
2022/08/23 00:23:45;;;;;;;4.13;3.70;;;20.30;87.90;;;;;;5075634;28;20451;-55
2022/08/23 00:26:12;;;;;;;4.60;4.20;;;20.40;88.20;;;;;;5075445;28;20444;-55
2022/08/23 00:28:41;;;;;;;5.50;4.20;;;20.50;88.30;;;;;;5075122;28;20440;-55
2022/08/23 00:31:08;;;;;;;4.77;3.50;;;20.50;88.30;;;;;;5075131;28;20472;-55
2022/08/23 00:33:35;;;;;;;6.03;4.10;;;20.40;88.20;;;;;;5074926;28;20953;-55
2022/08/23 00:36:03;;;;;;;5.77;4.07;;;20.40;88.80;;;;;;5075278;28;20449;-55
2022/08/23 00:38:30;;;;;;;5.20;4.07;;;20.40;89.10;;;;;;5075232;28;20568;-55
2022/08/23 00:40:57;;;;;;;3.73;3.13;;;20.40;89.10;;;;;;5075156;28;20563;-55
2022/08/23 00:49:22;;;;;;;6.37;5.37;;;20.30;90.10;;;;;;5074923;28;20412;-55
2022/08/23 00:51:56;;;;;;;4.70;3.90;;;20.10;90.60;;;;;;5074573;28;20468;-55
2022/08/23 00:54:26;;;;;;;4.00;3.60;;;20.10;90.80;;;;;;5074871;28;20440;-55
2022/08/23 00:56:54;;;;;;;3.97;3.57;;;20.20;90.50;;;;;;5074612;28;20457;-55
2022/08/23 00:59:23;;;;;;;4.00;3.50;;;20.20;90.60;;;;;;5074825;28;20567;-55
2022/08/23 01:01:52;;;;;;;6.00;3.80;;;20.10;90.80;;;;;;5073724;28;20464;-55
2022/08/23 01:04:19;;;;;;;6.80;4.07;;;20.10;91.20;;;;;;5074719;28;20448;-56
2022/08/23 01:06:50;;;;;;;4.37;3.97;;;20.10;91.30;;;;;;5074463;28;20451;-55
2022/08/23 01:09:21;;;;;;;4.90;3.70;;;19.90;91.70;;;;;;5074272;28;20479;-55
2022/08/23 01:11:53;;;;;;;4.13;3.67;;;19.80;92.00;;;;;;5074901;28;20475;-55
2022/08/23 01:14:27;;;;;;;4.33;3.70;;;19.70;92.20;;;;;;5074376;28;20444;-55
2022/08/23 01:16:59;;;;;;;3.90;3.50;;;19.50;92.70;;;;;;5074566;28;20973;-55
2022/08/23 01:19:30;;;;;;;4.30;3.90;;;19.50;93.00;;;;;;5074071;28;20970;-55
2022/08/23 01:22:04;;;;;;;4.43;3.87;;;19.50;93.20;;;;;;5073977;28;20581;-55
2022/08/23 01:24:34;;;;;;;6.17;3.50;;;19.50;93.50;;;;;;5073997;28;20523;-55
2022/08/23 01:27:02;;;;;;;5.03;4.40;;;19.50;93.90;;;;;;5074114;28;20436;-55
2022/08/23 01:29:29;;;;;;;4.60;3.60;;;19.50;94.40;;;;;;5073799;28;20453;-55
2022/08/23 01:31:57;;;;;;;4.47;3.73;;;19.60;94.30;;;;;;5073909;28;20472;-55
2022/08/23 01:34:27;;;;;;;5.37;3.80;;;19.60;94.30;;;;;;5073835;28;20956;-55
2022/08/23 01:36:56;;;;;;;4.60;4.13;;;19.60;94.50;;;;;;5074194;28;20865;-55
2022/08/23 01:39:23;;;;;;;4.20;3.90;;;19.60;94.60;;;;;;5073909;28;20537;-55
2022/08/23 01:41:52;;;;;;;7.03;3.97;;;19.60;94.70;;;;;;5074003;28;20534;-55
2022/08/23 01:44:19;;;;;;;5.00;3.93;;;19.60;94.80;;;;;;5073532;28;20479;-56
2022/08/23 01:46:47;;;;;;;5.77;4.23;;;19.60;95.00;;;;;;5073909;28;20455;-55
2022/08/23 01:49:18;;;;;;;4.57;4.17;;;19.50;95.20;;;;;;5073561;28;20500;-55
2022/08/23 01:51:45;;;;;;;4.97;4.10;;;19.60;95.50;;;;;;5073582;28;20525;-55
2022/08/23 01:54:13;;;;;;;4.80;4.40;;;19.50;95.90;;;;;;5073749;28;20475;-56
2022/08/23 01:56:41;;;;;;;6.67;4.50;;;19.40;96.10;;;;;;5073736;28;20994;-56
2022/08/23 01:59:12;;;;;;;4.37;4.00;;;19.30;96.60;;;;;;5073459;28;20478;-55
2022/08/23 02:01:39;;;;;;;5.40;3.83;;;19.30;96.80;;;;;;5073803;28;20951;-55
2022/08/23 02:04:06;;;;;;;5.10;4.17;;;19.20;97.00;;;;;;5073358;28;20465;-56
2022/08/23 02:06:34;;;;;;;6.53;3.70;;;19.30;97.30;;;;;;5073595;28;20542;-55
2022/08/23 02:09:01;;;;;;;6.63;4.93;;;19.40;97.20;;;;;;5073386;28;20448;-55
2022/08/23 02:11:31;;;;;;;10.17;4.60;;;19.30;97.20;;;;;;5073426;28;21032;-55
2022/08/23 02:14:00;;;;;;;5.90;4.30;;;19.20;97.70;;;;;;5073269;28;20429;-56
2022/08/23 02:16:32;;;;;;;5.63;4.57;;;19.00;98.30;;;;;;5073645;28;20518;-55
2022/08/23 02:19:01;;;;;;;8.47;4.90;;;18.80;98.70;;;;;;5073128;28;20439;-55
2022/08/23 02:21:30;;;;;;;4.53;3.83;;;18.90;99.00;;;;;;5073351;28;20545;-55
2022/08/23 02:23:57;;;;;;;4.63;4.00;;;19.00;99.10;;;;;;5073538;28;20846;-55
2022/08/23 02:26:25;;;;;;;4.83;4.40;;;19.10;98.90;;;;;;5073210;28;20455;-56
2022/08/23 02:28:53;;;;;;;4.60;4.10;;;19.00;99.20;;;;;;5073343;28;20551;-56
2022/08/23 02:31:20;;;;;;;6.13;5.07;;;19.00;99.30;;;;;;5073265;28;20464;-56
2022/08/23 02:33:49;;;;;;;4.70;4.13;;;18.90;99.50;;;;;;5073285;28;20514;-56
2022/08/23 02:36:16;;;;;;;5.43;4.33;;;18.90;99.70;;;;;;5073243;28;20444;-55
2022/08/23 02:38:43;;;;;;;6.30;4.00;;;18.90;99.90;;;;;;5073256;28;20448;-55
2022/08/23 02:41:11;;;;;;;5.50;4.50;;;18.90;99.90;;;;;;5073261;28;20491;-55
2022/08/23 02:43:38;;;;;;;6.00;4.30;;;18.90;99.90;;;;;;5072915;28;20511;-55
2022/08/23 02:46:06;;;;;;;7.47;4.17;;;18.80;99.90;;;;;;5072885;28;20459;-55
2022/08/23 02:48:33;;;;;;;4.23;3.80;;;18.80;99.90;;;;;;5073249;28;20444;-55
2022/08/23 02:51:03;;;;;;;9.10;4.60;;;18.80;99.90;;;;;;5072774;28;20986;-55
2022/08/23 02:53:32;;;;;;;4.13;3.83;;;18.90;99.90;;;;;;5073147;28;20464;-55
2022/08/23 02:55:59;;;;;;;6.37;4.40;;;18.90;99.90;;;;;;5072935;28;20976;-55
2022/08/23 02:58:27;;;;;;;4.07;3.80;;;19.00;99.90;;;;;;5072782;28;20448;-56
2022/08/23 03:00:54;;;;;;;5.30;4.10;;;19.00;99.90;;;;;;5072583;28;21056;-55
2022/08/23 03:03:21;;;;;;;3.90;3.50;;;19.00;99.90;;;;;;5073090;28;20451;-55
2022/08/23 03:05:49;;;;;;;7.00;4.70;;;18.90;99.90;;;;;;5072782;28;20539;-56
2022/08/23 03:08:19;;;;;;;4.60;4.03;;;18.80;99.90;;;;;;5072932;28;20448;-55
2022/08/23 03:10:49;;;;;;;5.37;4.33;;;18.70;99.90;;;;;;5072795;28;20472;-55
2022/08/23 03:13:16;;;;;;;6.53;4.10;;;18.70;99.90;;;;;;5073069;28;20468;-56
2022/08/23 03:15:44;;;;;;;5.83;4.23;;;18.80;99.90;;;;;;5072869;28;20458;-56
2022/08/23 03:18:12;;;;;;;5.10;4.13;;;18.80;99.90;;;;;;5072844;28;20463;-55
2022/08/23 03:20:40;;;;;;;4.90;4.27;;;18.80;99.90;;;;;;5072850;28;20487;-55
2022/08/23 03:23:07;;;;;;;3.97;3.67;;;18.70;99.90;;;;;;5072865;28;20540;-55
2022/08/23 03:25:37;;;;;;;5.13;4.63;;;18.60;99.90;;;;;;5076189;28;20448;-55
2022/08/23 03:28:05;;;;;;;7.67;4.30;;;18.80;99.90;;;;;;5076569;28;20444;-57
2022/08/23 03:30:32;;;;;;;5.80;4.50;;;18.70;99.90;;;;;;5076443;28;20460;-55
2022/08/23 03:33:00;;;;;;;4.20;3.73;;;18.60;99.90;;;;;;5076260;28;20505;-55
2022/08/23 03:35:27;;;;;;;8.60;4.43;;;18.50;99.90;;;;;;5076200;28;20452;-55
2022/08/23 03:37:54;;;;;;;5.03;4.47;;;18.50;99.90;;;;;;5076492;28;20918;-55
2022/08/23 03:40:22;;;;;;;4.60;4.10;;;18.40;99.90;;;;;;5075778;28;20479;-56
2022/08/23 03:42:51;;;;;;;4.73;4.30;;;18.50;99.90;;;;;;5076254;28;20432;-56
2022/08/23 03:45:19;;;;;;;5.00;4.50;;;18.60;99.90;;;;;;5075894;28;20490;-56
2022/08/23 03:47:46;;;;;;;9.53;4.20;;;18.70;99.90;;;;;;5076116;28;20535;-56
2022/08/23 03:50:14;;;;;;;5.33;4.00;;;18.70;99.90;;;;;;5075763;28;20539;-55
2022/08/23 03:52:41;;;;;;;4.80;4.40;;;18.70;99.90;;;;;;5076229;28;20973;-55
2022/08/23 03:55:08;;;;;;;4.37;3.97;;;18.60;99.90;;;;;;5076051;28;20846;-55
2022/08/23 03:57:36;;;;;;;4.00;3.63;;;18.40;99.90;;;;;;5075789;28;20806;-56
2022/08/23 04:00:07;;;;;;;6.10;4.73;;;18.40;99.90;;;;;;5076180;28;20537;-55
2022/08/23 04:02:34;;;;;;;4.97;4.47;;;18.40;99.90;;;;;;5075853;28;20535;-55
2022/08/23 04:05:02;;;;;;;4.20;3.80;;;18.30;99.90;;;;;;5075589;28;20448;-55
2022/08/23 04:07:29;;;;;;;6.17;5.60;;;18.40;99.90;;;;;;5075952;28;20452;-56
2022/08/23 04:09:56;;;;;;;5.40;4.30;;;18.20;99.90;;;;;;5075409;28;20455;-56
2022/08/23 04:12:23;;;;;;;4.77;4.37;;;18.20;99.90;;;;;;5075850;28;20507;-56
2022/08/23 04:14:51;;;;;;;4.83;4.30;;;18.10;99.90;;;;;;5075542;28;20448;-56
2022/08/23 04:17:20;;;;;;;5.23;4.60;;;18.10;99.90;;;;;;5075738;28;20480;-56
2022/08/23 04:19:48;;;;;;;6.60;4.07;;;18.00;99.90;;;;;;5075444;28;20561;-55
2022/08/23 04:22:16;;;;;;;5.50;4.43;;;18.20;99.90;;;;;;5075178;28;20479;-55
2022/08/23 04:24:45;;;;;;;7.80;5.10;;;18.40;99.90;;;;;;5075282;28;20544;-56
2022/08/23 04:27:13;;;;;;;5.63;4.50;;;18.40;99.90;;;;;;5075394;28;20535;-56
2022/08/23 04:29:40;;;;;;;5.27;4.70;;;18.40;99.90;;;;;;5075408;28;20456;-55
2022/08/23 04:32:10;;;;;;;6.37;4.90;;;18.40;99.90;;;;;;5075382;28;20471;-56
2022/08/23 04:34:41;;;;;;;5.87;5.33;;;18.50;99.90;;;;;;5074675;28;20457;-55
2022/08/23 04:37:08;;;;;;;5.07;4.60;;;18.50;99.90;;;;;;5074711;28;20436;-56
2022/08/23 04:42:16;;;;;;;7.53;5.40;;;18.40;99.90;;;;;;5074919;28;20539;-55
2022/08/23 04:42:24;;;;;;;5.57;4.67;;;18.50;99.90;;;;;;5075189;28;20841;-55
2022/08/23 04:44:51;;;;;;;5.97;5.07;;;18.50;99.90;;;;;;5073930;28;20480;-55
2022/08/23 04:47:19;;;;;;;6.03;4.30;;;18.30;99.90;;;;;;5074837;28;20433;-56
2022/08/23 04:49:47;;;;;;;5.33;4.20;;;18.30;99.90;;;;;;5074965;28;20529;-56
2022/08/23 04:52:14;;;;;;;5.50;4.90;;;18.50;99.90;;;;;;5074591;28;20455;-57
2022/08/23 04:54:46;;;;;;;4.90;4.50;;;18.30;99.90;;;;;;5074877;28;20456;-57
2022/08/23 04:57:15;;;;;;;7.47;5.13;;;18.30;99.90;;;;;;5074458;28;20457;-56
2022/08/23 04:59:42;;;;;;;5.47;4.20;;;18.40;99.90;;;;;;5074780;28;20484;-56
2022/08/23 05:02:10;;;;;;;5.27;4.80;;;18.40;99.90;;;;;;5074325;28;21038;-57
2022/08/23 05:04:37;;;;;;;6.03;5.07;;;18.30;99.90;;;;;;5074543;28;20483;-57
2022/08/23 05:07:06;;;;;;;7.00;4.63;;;18.30;99.90;;;;;;5074717;28;20539;-56
2022/08/23 05:09:33;;;;;;;5.50;4.83;;;18.20;99.90;;;;;;5074827;28;20478;-56
2022/08/23 05:12:00;;;;;;;5.30;4.80;;;18.00;99.90;;;;;;5074500;28;20468;-56
2022/08/23 05:14:27;;;;;;;5.40;4.90;;;18.10;99.90;;;;;;5074512;28;20497;-56
2022/08/23 05:16:54;;;;;;;5.07;4.17;;;18.30;99.90;;;;;;5074324;28;20435;-56
2022/08/23 05:19:22;;;;;;;6.00;5.03;;;18.40;99.90;;;;;;5074214;28;20451;-56
2022/08/23 05:21:49;;;;;;;9.60;4.87;;;18.30;99.90;;;;;;5074045;28;20495;-57
2022/08/23 05:24:18;;;;;;;7.33;5.20;;;18.30;99.90;;;;;;5073947;28;20795;-57
2022/08/23 05:26:45;;;;;;;5.70;5.20;;;18.40;99.90;;;;;;5073890;28;20455;-57
2022/08/23 05:29:12;;;;;;;5.50;5.00;;;18.50;99.90;;;;;;5073849;28;20788;-57
2022/08/23 05:31:39;;;;;;;13.77;6.50;;;18.50;99.90;;;;;;5074040;28;20464;-57
2022/08/23 05:34:06;;;;;;;6.60;4.83;;;18.60;99.90;;;;;;5073615;28;20483;-57
2022/08/23 05:36:34;;;;;;;7.63;5.00;;;18.60;99.90;;;;;;5073684;28;20501;-56
2022/08/23 05:39:01;;;;;;;4.90;4.50;;;18.70;99.90;;;;;;5074050;28;20478;-56
2022/08/23 05:41:30;;;;;;;9.70;4.90;;;18.70;99.90;;;;;;5073302;28;20527;-56
2022/08/23 05:43:57;;;;;;;7.83;4.83;;;18.80;99.90;;;;;;5073361;28;20516;-56
2022/08/23 05:46:25;;;;;;;7.33;5.10;;;18.90;99.90;;;;;;5073491;28;20474;-57
2022/08/23 05:48:52;;;;;;;9.13;5.60;;;18.90;99.90;;;;;;5073379;28;20444;-56
2022/08/23 05:51:21;;;;;;;5.97;4.93;;;18.90;99.90;;;;;;5073299;28;21062;-57
2022/08/23 05:53:50;;;;;;;12.60;5.03;;;18.90;99.90;;;;;;5073417;28;20455;-57
2022/08/23 05:56:19;;;;;;;7.30;5.27;;;18.90;99.90;;;;;;5073640;28;20487;-57
2022/08/23 05:58:49;;;;;;;11.13;4.70;;;19.00;99.90;;;;;;5073350;28;20455;-57
2022/08/23 06:01:17;;;;;;;6.80;5.50;;;19.10;99.90;;;;;;5073446;28;20516;-56
2022/08/23 06:03:44;;;;;;;5.87;4.87;;;19.10;99.90;;;;;;5073192;28;20487;-56
2022/08/23 06:06:14;;;;;;;7.23;6.53;;;19.20;99.90;;;;;;5073254;28;20539;-56
2022/08/23 06:08:44;;;;;;;5.03;4.53;;;19.30;99.90;;;;;;5073503;28;20452;-56
2022/08/23 06:11:13;;;;;;;6.90;4.93;;;19.30;99.90;;;;;;5073935;28;20472;-57
2022/08/23 06:13:42;;;;;;;17.40;5.47;;;19.30;99.90;;;;;;5072840;28;20448;-57
2022/08/23 06:16:12;;;;;;;8.47;4.93;;;19.40;99.90;;;;;;5073383;28;20451;-56
2022/08/23 06:18:39;;;;;;;7.57;5.43;;;19.50;99.90;;;;;;5073540;28;20444;-57
2022/08/23 06:21:08;;;;;;;7.23;4.97;;;19.70;99.90;;;;;;5073334;28;20510;-58
2022/08/23 06:23:36;;;;;;;7.23;5.47;;;19.60;99.90;;;;;;5072956;28;20448;-57
2022/08/23 06:26:10;;;;;;;5.80;5.07;;;19.70;99.90;;;;;;5073199;28;20459;-55
2022/08/23 06:28:38;;;;;;;5.80;4.80;;;19.80;99.90;;;;;;5073263;28;20428;-56
2022/08/23 06:31:05;;;;;;;7.87;5.67;;;19.90;99.90;;;;;;5072480;28;20552;-56
2022/08/23 06:33:34;;;;;;;5.23;4.83;;;20.00;99.90;;;;;;5072689;28;20455;-57
2022/08/23 06:36:03;;;;;;;6.37;4.97;;;20.10;99.90;;;;;;5072974;28;20429;-57
2022/08/23 06:38:31;;;;;;;7.57;5.07;;;20.20;99.90;;;;;;5073010;28;20448;-56
2022/08/23 06:41:02;;;;;;;7.10;4.97;;;20.30;99.90;;;;;;5072926;28;20496;-56
2022/08/23 06:43:30;;;;;;;5.30;4.23;;;20.30;99.90;;;;;;5072539;28;20448;-56
2022/08/23 06:46:08;;;;;;;9.10;5.20;;;20.50;99.90;;;;;;5072618;28;20439;-57
2022/08/23 06:48:37;;;;;;;7.53;5.60;;;20.60;99.90;;;;;;5073311;28;20460;-56
2022/08/23 06:51:09;;;;;;;7.43;4.67;;;20.60;99.40;;;;;;5072541;28;20525;-56
2022/08/23 06:53:36;;;;;;;6.63;5.60;;;20.50;99.90;;;;;;5072602;28;20511;-56
2022/08/23 06:56:03;;;;;;;5.00;4.30;;;20.60;99.90;;;;;;5073098;28;20535;-55
2022/08/23 06:58:31;;;;;;;6.20;4.70;;;20.60;99.90;;;;;;5073232;28;20806;-55
2022/08/23 07:01:09;;;;;;;6.70;5.03;;;20.70;99.70;;;;;;5076603;28;20487;-56
2022/08/23 07:03:38;;;;;;;5.83;4.87;;;20.60;99.90;;;;;;5076452;28;20554;-57
2022/08/23 07:06:06;;;;;;;5.90;4.00;;;20.80;99.80;;;;;;5076611;28;20440;-57
2022/08/23 07:08:33;;;;;;;4.47;4.00;;;20.90;99.40;;;;;;5076743;28;20454;-57
2022/08/23 07:11:01;;;;;;;7.83;5.17;;;20.90;98.90;;;;;;5076707;28;20472;-57
2022/08/23 07:13:28;;;;;;;6.30;5.70;;;21.00;99.30;;;;;;5076815;28;20474;-57
2022/08/23 07:15:58;;;;;;;5.73;4.13;;;21.10;99.60;;;;;;5076594;28;20491;-57
2022/08/23 07:18:26;;;;;;;5.60;3.93;;;21.20;98.90;;;;;;5076580;28;20444;-56
2022/08/23 07:20:57;;;;;;;4.80;3.97;;;21.30;98.60;;;;;;5076286;28;20487;-57
2022/08/23 07:23:25;;;;;;;6.43;4.23;;;21.40;98.90;;;;;;5076225;28;21029;-57
2022/08/23 07:25:53;;;;;;;5.00;4.60;;;21.50;98.90;;;;;;5076158;28;20448;-57
2022/08/23 07:28:20;;;;;;;7.40;5.17;;;21.60;97.70;;;;;;5076306;28;20454;-57
2022/08/23 07:30:47;;;;;;;6.10;4.13;;;21.70;98.10;;;;;;5076109;28;20457;-57
2022/08/23 07:33:14;;;;;;;5.27;4.33;;;21.80;97.50;;;;;;5076126;28;20631;-56
2022/08/23 07:35:48;;;;;;;5.90;4.83;;;21.90;97.20;;;;;;5075878;28;20424;-57
2022/08/23 07:38:17;;;;;;;9.87;3.70;;;22.00;97.60;;;;;;5076153;28;20454;-57
2022/08/23 07:40:45;;;;;;;5.60;4.27;;;22.10;96.80;;;;;;5075509;28;21031;-57
2022/08/23 07:43:12;;;;;;;4.37;3.97;;;22.20;97.60;;;;;;5075800;28;20542;-57
2022/08/23 07:45:42;;;;;;;5.47;4.60;;;22.30;97.20;;;;;;5075586;28;20480;-57
2022/08/23 07:48:10;;;;;;;4.70;4.30;;;22.40;96.80;;;;;;5075773;28;20451;-57
2022/08/23 07:50:39;;;;;;;3.83;3.53;;;22.50;96.50;;;;;;5075806;28;20472;-57
2022/08/23 07:53:06;;;;;;;14.80;4.50;;;22.60;96.50;;;;;;5075916;28;20531;-57
2022/08/23 07:55:35;;;;;;;5.60;3.97;;;22.80;96.70;;;;;;5076177;28;20814;-57
2022/08/23 07:58:02;;;;;;;5.90;4.33;;;22.90;95.50;;;;;;5075750;28;20444;-56
2022/08/23 08:00:29;;;;;;;6.87;4.40;;;22.90;95.60;;;;;;5075737;28;20468;-56
2022/08/23 08:02:56;;;;;;;5.80;4.80;;;23.00;95.70;;;;;;5075596;28;20450;-57
2022/08/23 08:05:24;;;;;;;4.70;3.80;;;23.10;95.40;;;;;;5075416;28;20814;-56
2022/08/23 08:07:51;;;;;;;7.07;4.60;;;23.20;94.60;;;;;;5075467;28;20447;-57
2022/08/23 08:10:19;;;;;;;8.53;4.43;;;23.40;95.20;;;;;;5075247;28;20440;-56
2022/08/23 08:12:48;;;;;;;9.63;3.70;;;23.40;95.30;;;;;;5075283;28;20421;-56
2022/08/23 08:15:16;;;;;;;4.13;3.80;;;23.50;94.20;;;;;;5075519;28;20863;-56
2022/08/23 08:17:43;;;;;;;5.47;4.83;;;23.50;93.80;;;;;;5075348;28;20444;-56
2022/08/23 08:20:11;;;;;;;6.90;4.20;;;23.50;94.00;;;;;;5075307;28;20535;-56
2022/08/23 08:22:38;;;;;;;4.43;4.03;;;23.70;93.80;;;;;;5074898;28;21029;-56
2022/08/23 08:25:06;;;;;;;7.80;4.40;;;24.20;93.40;;;;;;5075206;28;20923;-58
2022/08/23 08:27:33;;;;;;;6.37;3.80;;;25.10;91.80;;;;;;5075242;28;20455;-58
2022/08/23 08:30:01;;;;;;;5.97;3.47;;;26.30;90.60;;;;;;5075044;28;20450;-57
2022/08/23 08:32:29;;;;;;;4.50;3.60;;;27.40;86.70;;;;;;5075047;28;20472;-57
2022/08/23 08:34:56;;;;;;;4.07;3.60;;;27.90;83.10;;;;;;5074940;28;20451;-57
2022/08/23 08:37:23;;;;;;;5.37;3.50;;;28.50;80.50;;;;;;5074743;28;20923;-57
2022/08/23 08:39:50;;;;;;;3.77;3.47;;;29.00;77.80;;;;;;5074681;28;20950;-57
2022/08/23 08:42:40;;;;;;;5.13;4.17;;;29.20;76.40;;;;;;5075167;28;20488;-57
2022/08/23 08:45:13;;;;;;;4.37;3.27;;;29.30;75.30;;;;;;5074459;28;20483;-57
2022/08/23 08:47:45;;;;;;;6.57;4.53;;;29.70;77.90;;;;;;5074726;28;20527;-57
2022/08/23 08:50:19;;;;;;;6.00;3.87;;;29.70;71.20;;;;;;5074636;28;20437;-57
2022/08/23 08:52:48;;;;;;;7.50;4.27;;;;;;;;;;5074612;28;20446;-57
2022/08/23 08:55:21;;;;;;;6.33;4.33;;;30.20;69.60;;;;;;5074276;28;20462;-57
2022/08/23 08:57:50;;;;;;;6.97;4.10;;;30.00;69.40;;;;;;5074718;28;20516;-57
2022/08/23 09:00:22;;;;;;;3.63;3.33;;;29.90;66.10;;;;;;5074516;28;20481;-57
2022/08/23 09:02:50;;;;;;;7.37;3.50;;;30.10;67.20;;;;;;5074211;28;20473;-57
2022/08/23 09:05:20;;;;;;;3.60;3.30;;;29.90;66.30;;;;;;5074527;28;20445;-57
2022/08/23 09:07:59;;;;;;;7.70;3.70;;;30.00;63.40;;;;;;5074095;28;20918;-57
2022/08/23 09:10:48;;;;;;;4.60;4.10;;;30.50;66.10;;;;;;5074231;28;20460;-56
2022/08/23 09:13:43;;;;;;;4.23;3.70;;;30.80;66.80;;;;;;5073810;28;20439;-57
2022/08/23 09:16:27;;;;;;;5.17;3.53;;;31.40;63.80;;;;;;5074514;28;20443;-57
2022/08/23 09:18:54;;;;;;;4.43;3.37;;;31.30;65.60;;;;;;5074468;28;20421;-57
2022/08/23 09:21:22;;;;;;;4.30;3.00;;;31.60;63.70;;;;;;5073452;28;20490;-56
2022/08/23 09:23:51;;;;;;;5.10;4.00;;;31.90;62.20;;;;;;5073797;28;20962;-57
2022/08/23 09:26:23;;;;;;;8.30;3.90;;;31.40;60.70;;;;;;5073884;28;20448;-56
2022/08/23 09:28:52;;;;;;;3.80;3.50;;;31.60;61.10;;;;;;5074074;28;20840;-56
2022/08/23 09:31:43;;;;;;;6.77;2.73;;;31.70;59.70;;;;;;5074023;28;20467;-56
2022/08/23 09:34:15;;;;;;;4.10;3.20;;;31.10;57.90;;;;;;5073816;28;20421;-56
2022/08/23 09:36:43;;;;;;;3.47;3.17;;;31.60;57.50;;;;;;5073890;28;20464;-56
2022/08/23 09:39:25;;;;;;;3.50;2.63;;;31.90;56.40;;;;;;5073997;28;20448;-56
2022/08/23 09:41:53;;;;;;;4.13;2.90;;;31.90;57.40;;;;;;5073860;28;20958;-56
2022/08/23 09:44:34;;;;;;;5.60;3.07;;;31.50;56.00;;;;;;5073461;28;20931;-56
2022/08/23 09:47:13;;;;;;;3.93;3.17;;;31.70;56.10;;;;;;5073835;28;20446;-57
2022/08/23 09:49:42;;;;;;;3.70;3.00;;;32.10;56.20;;;;;;5073476;28;20895;-56
2022/08/23 09:52:20;;;;;;;2.90;2.63;;;32.70;55.70;;;;;;5073859;28;20468;-56
2022/08/23 09:54:56;;;;;;;5.97;2.70;;;32.70;54.50;;;;;;5073461;28;20432;-56
2022/08/23 09:57:27;;;;;;;3.83;3.43;;;32.50;53.80;;;;;;5073337;28;20802;-56
2022/08/23 09:59:56;;;;;;;5.03;2.77;;;32.30;54.00;;;;;;5073566;28;20443;-56
2022/08/23 10:02:29;;;;;;;2.50;2.30;;;33.00;53.30;;;;;;5073257;28;20491;-56
2022/08/23 10:04:59;;;;;;;3.53;2.37;;;33.70;52.70;;;;;;5073665;28;20769;-56
2022/08/23 10:07:40;;;;;;;3.37;3.07;;;33.50;52.40;;;;;;5073501;28;20448;-56
2022/08/23 10:10:19;;;;;;;5.77;3.60;;;33.90;52.00;;;;;;5073397;28;20432;-56
2022/08/23 10:12:46;;;;;;;2.50;2.30;;;33.60;51.20;;;;;;5073053;28;20424;-56
2022/08/23 10:15:15;;;;;;;3.30;2.90;;;33.20;51.00;;;;;;5073345;28;20539;-57
2022/08/23 10:17:54;;;;;;;2.93;2.70;;;33.30;51.50;;;;;;5073194;28;20964;-56
2022/08/23 10:20:33;;;;;;;4.10;3.30;;;33.20;51.40;;;;;;5073383;28;20468;-57
2022/08/23 10:23:14;;;;;;;2.93;2.23;;;32.70;50.40;;;;;;5073074;28;20541;-56
2022/08/23 10:25:48;;;;;;;6.83;2.67;;;32.80;50.90;;;;;;5073273;28;20420;-56
2022/08/23 10:31:15;;;;;;;3.10;2.80;;;33.90;50.20;;;;;;5072899;28;20447;-56
2022/08/23 10:33:52;;;;;;;5.07;2.67;;;33.50;49.80;;;;;;5073118;28;20434;-56
2022/08/23 10:36:30;;;;;;;3.80;2.50;;;33.60;50.70;;;;;;5073132;28;20428;-56
2022/08/23 10:38:59;;;;;;;4.83;2.90;;;33.20;49.90;;;;;;5073190;28;20625;-56
2022/08/23 10:41:48;;;;;;;5.13;3.20;;;34.00;49.60;;;;;;5072714;28;20480;-56
2022/08/23 10:44:24;;;;;;;2.37;2.17;;;34.10;48.90;;;;;;5072745;28;20479;-56
2022/08/23 10:47:04;;;;;;;7.20;2.77;;;34.40;48.40;;;;;;5073055;28;20435;-56
2022/08/23 10:49:35;;;;;;;2.70;2.50;;;34.40;47.90;;;;;;5072855;28;20884;-56
2022/08/23 10:52:04;;;;;;;3.50;2.40;;;34.40;48.10;;;;;;5072674;28;20460;-56
2022/08/23 10:54:45;;;;;;;3.40;2.70;;;34.20;47.10;;;;;;5072998;28;20447;-57
2022/08/23 10:57:19;;;;;;;3.23;2.53;;;34.20;47.70;;;;;;5073252;28;20755;-56
2022/08/23 10:59:49;;;;;;;2.60;2.40;;;33.40;47.10;;;;;;5073212;28;20451;-56
2022/08/23 11:02:28;;;;;;;4.90;2.70;;;33.60;47.70;;;;;;5072544;28;20494;-57
2022/08/23 11:05:04;;;;;;;2.70;2.50;;;34.20;47.00;;;;;;5072624;28;20432;-56
2022/08/23 11:07:33;;;;;;;3.10;2.73;;;33.90;46.80;;;;;;5072661;28;20428;-56
2022/08/23 11:10:10;;;;;;;3.13;2.50;;;34.10;46.70;;;;;;5072599;28;20452;-56
2022/08/23 11:12:53;;;;;;;5.20;2.73;;;34.70;46.10;;;;;;5073013;28;20424;-56
2022/08/23 11:15:28;;;;;;;2.73;2.50;;;34.90;46.10;;;;;;5072903;28;20428;-56
2022/08/23 11:18:00;;;;;;;2.63;2.43;;;34.90;45.50;;;;;;5072858;28;20454;-56
2022/08/23 11:21:05;;;;;;;9.03;3.27;;;34.20;45.60;;;;;;5072789;28;20474;-56
2022/08/23 11:23:39;;;;;;;4.80;2.33;;;34.00;45.70;;;;;;5072254;28;20468;-56
2022/08/23 11:26:10;;;;;;;3.60;2.50;;;34.00;45.10;;;;;;5072729;28;20428;-56
2022/08/23 11:28:40;;;;;;;3.27;2.30;;;33.70;45.10;;;;;;5072682;28;20524;-56
2022/08/23 11:31:25;;;;;;;3.07;2.77;;;33.90;45.20;;;;;;5072744;28;20884;-57
2022/08/23 11:34:01;;;;;;;3.90;2.70;;;33.80;45.80;;;;;;5072486;28;20431;-56
2022/08/23 11:36:31;;;;;;;4.80;2.50;;;33.80;45.70;;;;;;5072721;28;20434;-56
2022/08/23 11:39:09;;;;;;;2.83;2.53;;;34.20;44.90;;;;;;5072657;28;20550;-56
2022/08/23 11:41:57;;;;;;;3.47;2.83;;;34.70;45.10;;;;;;5072103;28;21017;-56
2022/08/23 11:44:27;;;;;;;2.60;2.40;;;34.70;45.30;;;;;;5072327;28;21060;-56
2022/08/23 11:47:06;;;;;;;2.90;2.60;;;35.80;44.90;;;;;;5075788;28;20432;-57
2022/08/23 11:50:06;;;;;;;2.83;2.33;;;35.60;44.60;;;;;;5076071;28;20411;-57
2022/08/23 11:53:02;;;;;;;2.93;2.63;;;35.40;44.70;;;;;;5075813;28;20902;-57
2022/08/23 11:55:55;;;;;;;2.80;2.40;;;34.40;45.00;;;;;;5075704;28;20514;-57
2022/08/23 11:58:26;;;;;;;3.30;2.70;;;34.40;45.10;;;;;;5067631;28;20951;-57
2022/08/23 12:01:07;;;;;;;3.73;3.03;;;33.70;45.40;;;;;;5075485;28;20470;-56
2022/08/23 12:03:55;;;;;;;3.13;2.70;;;33.80;45.60;;;;;;5075687;28;20473;-56
2022/08/23 12:06:42;;;;;;;4.43;2.87;;;33.80;45.80;;;;;;5075811;28;20487;-57
2022/08/23 12:09:55;;;;;;;3.60;2.67;;;33.70;45.50;;;;;;5075314;28;20448;-57
2022/08/23 12:12:34;;;;;;;2.90;2.70;;;33.80;45.50;;;;;;5071044;28;20480;-57
2022/08/23 12:15:04;;;;;;;3.23;2.50;;;34.20;45.60;;;;;;5075591;28;20454;-56
2022/08/23 12:18:12;;;;;;;3.63;2.80;;;33.70;45.60;;;;;;5075339;28;20455;-56
2022/08/23 12:20:40;;;;;;;2.83;2.63;;;34.40;45.30;;;;;;5045345;28;20472;-57
2022/08/23 12:23:19;;;;;;;5.13;2.90;;;34.50;44.90;;;;;;5075011;28;20471;-57
2022/08/23 12:26:04;;;;;;;3.00;2.73;;;34.40;45.10;;;;;;5075372;28;20516;-57
2022/08/23 12:28:39;;;;;;;3.33;3.03;;;34.20;44.80;;;;;;5075316;28;20439;-57
2022/08/23 12:31:16;;;;;;;3.83;2.77;;;34.20;44.70;;;;;;5075303;28;20469;-57
2022/08/23 12:33:55;;;;;;;3.33;2.50;;;34.40;45.50;;;;;;5075036;28;20435;-57
2022/08/23 12:36:31;;;;;;;4.47;2.50;;;34.80;44.70;;;;;;5075102;28;20428;-57
2022/08/23 12:39:03;;;;;;;3.27;2.97;;;34.40;44.30;;;;;;5075228;28;20434;-57
2022/08/23 12:41:48;;;;;;;4.27;2.97;;;33.50;44.30;;;;;;5075250;28;20490;-56
2022/08/23 12:44:19;;;;;;;3.40;3.07;;;33.50;45.10;;;;;;5074528;28;20492;-56
2022/08/23 12:46:48;;;;;;;3.07;2.77;;;33.50;45.00;;;;;;5075017;28;20475;-56
2022/08/23 12:49:25;;;;;;;2.83;2.63;;;33.10;45.20;;;;;;5074868;28;20471;-57
2022/08/23 12:51:55;;;;;;;3.30;3.00;;;33.30;45.60;;;;;;5074659;28;20476;-56
2022/08/23 12:54:31;;;;;;;3.57;2.97;;;32.80;45.20;;;;;;5074811;28;20453;-56
2022/08/23 12:57:08;;;;;;;4.00;3.00;;;32.30;46.80;;;;;;5073350;28;20902;-57
2022/08/23 12:59:38;;;;;;;3.50;3.20;;;;;;;;;;5074742;28;20545;-57
2022/08/23 13:02:08;;;;;;;3.07;2.77;;;31.60;46.00;;;;;;5074162;28;20468;-57
2022/08/23 13:04:38;;;;;;;2.73;2.50;;;31.50;46.20;;;;;;5074589;28;20451;-57
2022/08/23 13:07:12;;;;;;;3.30;2.83;;;31.70;46.40;;;;;;5074184;28;20448;-56
2022/08/23 13:09:41;;;;;;;3.33;3.03;;;32.20;46.10;;;;;;5074311;28;20428;-57
2022/08/23 13:12:11;;;;;;;3.03;2.80;;;32.40;45.40;;;;;;5074457;28;20970;-56
2022/08/23 13:14:44;;;;;;;3.30;2.80;;;32.80;46.10;;;;;;5074714;28;20448;-57
2022/08/23 13:17:19;;;;;;;4.97;2.60;;;32.40;45.80;;;;;;5074143;28;20429;-56